createdAt,value
2018-02-02T00:02:07.285Z,70.74
2018-02-02T00:04:34.908Z,70.39
2018-02-02T00:07:02.435Z,70.92
2018-02-02T00:09:30.084Z,70.87
2018-02-02T00:11:57.587Z,71.31
2018-02-02T00:14:25.088Z,71.58
2018-02-02T00:16:52.672Z,71.14
2018-02-02T00:19:20.162Z,71.08
2018-02-02T00:21:48.205Z,71.16
2018-02-02T00:24:15.663Z,70.69
2018-02-02T00:26:43.102Z,70.70
2018-02-02T00:29:10.614Z,70.79
2018-02-02T00:31:38.130Z,70.37
2018-02-02T00:34:05.620Z,70.66
2018-02-02T00:36:33.402Z,70.67
2018-02-02T00:39:00.860Z,70.88
2018-02-02T00:41:28.347Z,70.25
2018-02-02T00:43:55.791Z,70.77
2018-02-02T00:46:23.317Z,70.50
2018-02-02T00:48:50.771Z,70.73
2018-02-02T00:51:23.762Z,70.83
2018-02-02T00:53:51.243Z,70.83
2018-02-02T00:56:18.688Z,71.08
2018-02-02T00:58:46.163Z,71.02
2018-02-02T01:01:13.655Z,71.13
2018-02-02T01:03:41.224Z,70.26
2018-02-02T01:06:08.730Z,70.06
2018-02-02T01:08:36.286Z,70.04
2018-02-02T01:11:03.723Z,69.91
2018-02-02T01:13:31.217Z,70.43
2018-02-02T01:15:58.648Z,70.23
2018-02-02T01:18:26.234Z,70.41
2018-02-02T01:20:53.727Z,70.54
2018-02-02T01:23:21.175Z,69.95
2018-02-02T01:25:48.643Z,70.05
2018-02-02T01:28:16.204Z,69.82
2018-02-02T01:30:43.846Z,69.95
2018-02-02T01:33:11.408Z,70.02
2018-02-02T01:35:38.851Z,70.14
2018-02-02T01:38:06.306Z,70.36
2018-02-02T01:40:33.773Z,70.03
2018-02-02T01:43:01.363Z,70.03
2018-02-02T01:45:28.830Z,70.58
2018-02-02T01:48:08.064Z,70.72
2018-02-02T01:50:35.519Z,70.61
2018-02-02T01:53:02.963Z,70.62
2018-02-02T01:55:30.440Z,70.70
2018-02-02T01:57:57.991Z,70.57
2018-02-02T02:00:25.523Z,70.13
2018-02-02T02:02:52.996Z,70.11
2018-02-02T02:05:20.443Z,70.21
2018-02-02T02:07:47.950Z,70.63
2018-02-02T02:10:15.413Z,70.85
2018-02-02T02:12:42.886Z,71.41
2018-02-02T02:15:10.372Z,70.71
2018-02-02T02:17:37.825Z,70.85
2018-02-02T02:20:05.296Z,71.05
2018-02-02T02:22:32.751Z,71.21
2018-02-02T02:25:00.229Z,71.48
2018-02-02T02:27:27.679Z,71.69
2018-02-02T02:29:55.156Z,71.48
2018-02-02T02:32:22.779Z,71.94
2018-02-02T02:34:50.183Z,72.03
2018-02-02T02:37:17.648Z,71.94
2018-02-02T02:39:45.094Z,71.93
2018-02-02T02:42:12.568Z,72.32
2018-02-02T02:44:40.039Z,72.48
2018-02-02T02:47:07.489Z,72.35
2018-02-02T02:49:35.587Z,72.78
2018-02-02T02:52:03.033Z,72.20
2018-02-02T02:54:30.531Z,72.69
2018-02-02T02:56:57.991Z,72.50
2018-02-02T02:59:25.437Z,72.55
2018-02-02T03:01:52.879Z,72.45
2018-02-02T03:04:20.342Z,72.51
2018-02-02T03:06:48.033Z,73.06
2018-02-02T03:09:15.492Z,72.89
2018-02-02T03:11:42.967Z,73.20
2018-02-02T03:14:10.486Z,73.44
2018-02-02T03:16:38.024Z,73.06
2018-02-02T03:19:05.531Z,73.57
2018-02-02T03:21:32.976Z,73.82
2018-02-02T03:24:00.427Z,73.78
2018-02-02T03:26:27.882Z,73.25
2018-02-02T03:28:55.312Z,73.14
2018-02-02T03:31:22.839Z,73.23
2018-02-02T03:33:50.295Z,73.18
2018-02-02T03:36:17.756Z,73.20
2018-02-02T03:38:45.222Z,72.66
2018-02-02T03:41:12.673Z,72.85
2018-02-02T03:43:40.133Z,71.98
2018-02-02T03:46:07.611Z,72.34
2018-02-02T03:48:35.064Z,71.81
2018-02-02T03:51:03.082Z,72.06
2018-02-02T03:53:31.106Z,72.17
2018-02-02T03:55:58.560Z,71.88
2018-02-02T03:58:26.759Z,71.94
2018-02-02T04:00:54.211Z,71.87
2018-02-02T04:03:21.654Z,71.59
2018-02-02T04:05:49.131Z,72.07
2018-02-02T04:08:16.669Z,71.85
2018-02-02T04:10:44.127Z,71.73
2018-02-02T04:13:11.578Z,71.70
2018-02-02T04:15:39.032Z,71.54
2018-02-02T04:18:06.509Z,71.52
2018-02-02T04:20:34.298Z,71.54
2018-02-02T04:23:01.755Z,71.03
2018-02-02T04:25:29.215Z,71.73
2018-02-02T04:27:56.650Z,71.80
2018-02-02T04:30:24.100Z,71.98
2018-02-02T04:32:51.561Z,71.93
2018-02-02T04:35:19.036Z,71.35
2018-02-02T04:37:46.498Z,70.96
2018-02-02T04:40:13.952Z,70.74
2018-02-02T04:42:41.410Z,70.83
2018-02-02T04:45:08.877Z,70.81
2018-02-02T04:47:36.354Z,70.94
2018-02-02T04:50:03.802Z,70.86
2018-02-02T04:52:31.318Z,70.88
2018-02-02T04:54:58.767Z,71.11
2018-02-02T04:57:26.257Z,71.02
2018-02-02T04:59:53.711Z,71.27
2018-02-02T05:02:21.156Z,71.34
2018-02-02T05:04:48.610Z,71.60
2018-02-02T05:07:16.114Z,71.61
2018-02-02T05:09:43.587Z,71.30
2018-02-02T05:12:11.041Z,71.61
2018-02-02T05:14:38.537Z,71.65
2018-02-02T05:17:05.974Z,71.64
2018-02-02T05:19:33.596Z,71.27
2018-02-02T05:22:01.053Z,71.65
2018-02-02T05:24:29.327Z,71.81
2018-02-02T05:26:56.804Z,71.45
2018-02-02T05:29:24.259Z,71.63
2018-02-02T05:31:51.700Z,71.89
2018-02-02T05:34:19.183Z,71.47
2018-02-02T05:36:46.618Z,71.62
2018-02-02T05:39:14.067Z,71.52
2018-02-02T05:41:41.523Z,71.64
2018-02-02T05:44:08.971Z,71.53
2018-02-02T05:46:36.431Z,71.38
2018-02-02T05:49:03.918Z,71.92
2018-02-02T05:51:31.369Z,71.75
2018-02-02T05:53:58.815Z,72.04
2018-02-02T05:56:26.270Z,72.32
2018-02-02T05:58:53.718Z,72.21
2018-02-02T06:01:21.183Z,72.09
2018-02-02T06:03:48.643Z,71.43
2018-02-02T06:06:16.126Z,71.29
2018-02-02T06:08:43.570Z,70.93
2018-02-02T06:11:11.041Z,70.99
2018-02-02T06:13:38.508Z,70.59
2018-02-02T06:16:05.966Z,70.61
2018-02-02T06:18:33.420Z,70.12
2018-02-02T06:21:00.871Z,70.49
2018-02-02T06:23:28.333Z,70.62
2018-02-02T06:25:55.792Z,70.38
2018-02-02T06:28:23.248Z,70.51
2018-02-02T06:30:51.344Z,70.25
2018-02-02T06:33:18.920Z,69.93
2018-02-02T06:35:46.407Z,69.46
2018-02-02T06:38:14.107Z,69.33
2018-02-02T06:40:41.560Z,69.41
2018-02-02T06:43:09.031Z,69.40
2018-02-02T06:45:36.475Z,69.89
2018-02-02T06:48:04.306Z,69.22
2018-02-02T06:50:32.028Z,69.47
2018-02-02T06:52:59.485Z,69.86
2018-02-02T06:55:27.015Z,69.63
2018-02-02T06:57:54.524Z,69.50
2018-02-02T07:00:21.987Z,69.38
2018-02-02T07:02:49.467Z,69.27
2018-02-02T07:05:16.950Z,69.23
2018-02-02T07:07:44.388Z,69.57
2018-02-02T07:10:11.898Z,69.69
2018-02-02T07:12:39.367Z,69.25
2018-02-02T07:15:06.834Z,69.24
2018-02-02T07:17:34.298Z,68.96
2018-02-02T07:20:01.764Z,69.18
2018-02-02T07:22:29.213Z,68.96
2018-02-02T07:24:56.657Z,68.87
2018-02-02T07:27:24.109Z,68.86
2018-02-02T07:29:51.556Z,67.68
2018-02-02T07:32:19.013Z,68.01
2018-02-02T07:37:20.333Z,67.81
2018-02-02T07:39:47.799Z,67.35
2018-02-02T07:42:15.251Z,67.02
2018-02-02T07:44:42.702Z,66.45
2018-02-02T07:47:10.189Z,66.53
2018-02-02T07:49:37.778Z,66.68
2018-02-02T07:52:05.238Z,66.50
2018-02-02T07:54:32.715Z,65.87
2018-02-02T07:57:00.179Z,65.85
2018-02-02T07:59:27.627Z,65.94
2018-02-02T08:01:55.118Z,64.62
2018-02-02T08:04:22.590Z,64.36
2018-02-02T08:06:50.052Z,64.69
2018-02-02T08:09:17.696Z,64.70
2018-02-02T08:11:45.661Z,64.54
2018-02-02T08:14:13.141Z,64.27
2018-02-02T08:16:40.622Z,64.15
2018-02-02T08:19:08.134Z,63.86
2018-02-02T08:21:35.608Z,63.87
2018-02-02T08:24:03.111Z,63.59
2018-02-02T08:26:31.555Z,63.63
2018-02-02T08:28:59.075Z,63.40
2018-02-02T08:31:26.561Z,62.73
2018-02-02T08:33:54.008Z,63.02
2018-02-02T08:36:21.464Z,62.88
2018-02-02T08:38:49.096Z,62.14
2018-02-02T08:41:16.709Z,62.26
2018-02-02T08:43:44.203Z,62.19
2018-02-02T08:46:11.742Z,62.21
2018-02-02T08:48:39.278Z,62.25
2018-02-02T08:51:06.735Z,62.31
2018-02-02T08:53:34.226Z,61.60
2018-02-02T08:56:01.731Z,61.17
2018-02-02T08:58:29.358Z,62.03
2018-02-02T09:01:02.496Z,61.73
2018-02-02T09:03:30.361Z,61.58
2018-02-02T09:05:57.838Z,61.71
2018-02-02T09:08:25.304Z,61.93
2018-02-02T09:10:52.766Z,61.82
2018-02-02T09:13:20.230Z,62.36
2018-02-02T09:15:47.718Z,62.03
2018-02-02T09:18:15.194Z,61.49
2018-02-02T09:20:42.655Z,61.49
2018-02-02T09:23:10.132Z,60.37
2018-02-02T09:25:37.635Z,61.20
2018-02-02T09:28:04.544Z,60.66
2018-02-02T09:30:32.030Z,60.41
2018-02-02T09:32:59.479Z,60.86
2018-02-02T09:35:26.942Z,60.90
2018-02-02T09:37:54.403Z,60.67
2018-02-02T09:40:21.848Z,60.94
2018-02-02T09:42:49.311Z,61.17
2018-02-02T09:45:19.560Z,60.68
2018-02-02T09:47:47.043Z,60.74
2018-02-02T09:50:14.606Z,60.15
2018-02-02T09:52:42.081Z,59.97
2018-02-02T09:55:09.548Z,60.23
2018-02-02T09:57:37.047Z,59.13
2018-02-02T10:00:04.503Z,59.45
2018-02-02T10:02:32.192Z,59.68
2018-02-02T10:04:59.678Z,59.48
2018-02-02T10:07:27.147Z,59.66
2018-02-02T10:09:54.604Z,59.59
2018-02-02T10:12:22.060Z,59.30
2018-02-02T10:14:49.517Z,59.53
2018-02-02T10:17:17.000Z,59.52
2018-02-02T10:19:44.473Z,59.98
2018-02-02T10:22:11.967Z,59.02
2018-02-02T10:24:39.459Z,58.07
2018-02-02T10:27:06.938Z,57.69
2018-02-02T10:29:34.448Z,57.30
2018-02-02T10:32:01.944Z,57.37
2018-02-02T10:34:29.608Z,57.04
2018-02-02T10:36:57.075Z,56.42
2018-02-02T10:39:24.670Z,56.00
2018-02-02T10:41:52.125Z,56.07
2018-02-02T10:44:19.620Z,56.12
2018-02-02T10:46:47.053Z,56.39
2018-02-02T10:49:14.507Z,55.80
2018-02-02T10:51:41.989Z,56.32
2018-02-02T10:54:09.502Z,56.33
2018-02-02T10:56:36.974Z,56.19
2018-02-02T10:59:04.491Z,56.20
2018-02-02T11:01:37.031Z,55.27
2018-02-02T11:04:06.398Z,56.10
2018-02-02T11:06:33.853Z,56.32
2018-02-02T11:09:01.305Z,55.94
2018-02-02T11:11:28.766Z,56.43
2018-02-02T11:13:56.199Z,56.38
2018-02-02T11:16:23.770Z,56.21
2018-02-02T11:18:52.129Z,56.20
2018-02-02T11:21:19.582Z,56.70
2018-02-02T11:23:48.050Z,57.09
2018-02-02T11:26:15.655Z,57.29
2018-02-02T11:28:43.172Z,57.30
2018-02-02T11:31:10.661Z,57.06
2018-02-02T11:33:38.134Z,57.11
2018-02-02T11:36:05.690Z,57.55
2018-02-02T11:38:33.519Z,57.02
2018-02-02T11:41:00.985Z,57.19
2018-02-02T11:43:28.444Z,57.16
2018-02-02T11:45:55.901Z,56.87
2018-02-02T11:48:23.369Z,57.05
2018-02-02T11:50:50.870Z,56.98
2018-02-02T11:53:18.329Z,56.76
2018-02-02T11:55:45.811Z,57.18
2018-02-02T11:58:13.322Z,57.22
2018-02-02T12:00:40.814Z,57.64
2018-02-02T12:03:08.299Z,57.47
2018-02-02T12:05:35.782Z,57.60
2018-02-02T12:08:03.326Z,57.48
2018-02-02T12:10:30.794Z,57.53
2018-02-02T12:12:58.358Z,57.99
2018-02-02T12:15:25.831Z,58.36
2018-02-02T12:17:53.366Z,58.10
2018-02-02T12:20:20.841Z,58.08
2018-02-02T12:23:04.192Z,58.14
2018-02-02T12:25:37.197Z,58.58
2018-02-02T12:31:21.487Z,58.84
2018-02-02T12:34:01.884Z,59.48
2018-02-02T12:36:44.229Z,59.33
2018-02-02T12:39:11.710Z,59.39
2018-02-02T12:41:40.402Z,59.39
2018-02-02T12:44:07.869Z,59.32
2018-02-02T12:46:35.469Z,59.51
2018-02-02T12:49:03.038Z,59.89
2018-02-02T12:51:30.537Z,59.84
2018-02-02T12:53:58.035Z,60.22
2018-02-02T12:56:25.492Z,60.18
2018-02-02T12:58:53.059Z,59.96
2018-02-02T13:01:20.547Z,60.31
2018-02-02T13:03:48.019Z,60.76
2018-02-02T13:06:15.505Z,60.75
2018-02-02T13:08:43.005Z,61.07
2018-02-02T13:11:10.499Z,61.29
2018-02-02T13:13:37.973Z,61.72
2018-02-02T13:16:05.450Z,62.21
2018-02-02T13:18:32.942Z,61.90
2018-02-02T13:21:00.422Z,62.22
2018-02-02T13:23:27.944Z,62.00
2018-02-02T13:25:55.370Z,61.79
2018-02-02T13:28:22.904Z,63.00
2018-02-02T13:30:50.410Z,63.01
2018-02-02T13:33:17.991Z,62.87
2018-02-02T13:35:45.459Z,62.25
2018-02-02T13:38:12.956Z,62.18
2018-02-02T13:40:46.622Z,63.09
2018-02-02T13:43:14.162Z,62.21
2018-02-02T13:45:41.644Z,61.90
2018-02-02T13:48:09.102Z,60.99
2018-02-02T13:50:36.597Z,60.50
2018-02-02T13:53:04.047Z,60.22
2018-02-02T13:55:31.581Z,60.36
2018-02-02T13:57:59.100Z,59.60
2018-02-02T14:00:26.953Z,59.94
2018-02-02T14:02:54.456Z,59.77
2018-02-02T14:05:21.942Z,58.90
2018-02-02T14:07:49.500Z,59.52
2018-02-02T14:12:44.065Z,59.49
2018-02-02T14:15:11.515Z,59.72
2018-02-02T14:17:38.973Z,60.33
2018-02-02T14:20:06.469Z,60.06
2018-02-02T14:22:34.294Z,60.67
2018-02-02T14:25:01.778Z,60.44
2018-02-02T14:27:29.234Z,60.62
2018-02-02T14:29:56.687Z,60.51
2018-02-02T14:32:24.143Z,60.40
2018-02-02T14:34:51.676Z,60.60
2018-02-02T14:37:19.186Z,60.78
2018-02-02T14:39:46.668Z,61.00
2018-02-02T14:42:14.803Z,60.89
2018-02-02T14:44:42.372Z,61.04
2018-02-02T14:47:09.890Z,60.49
2018-02-02T14:49:37.385Z,61.05
2018-02-02T14:52:04.860Z,61.05
2018-02-02T14:54:32.337Z,61.41
2018-02-02T14:56:59.911Z,61.14
2018-02-02T14:59:27.400Z,61.19
2018-02-02T15:01:54.874Z,60.70
2018-02-02T15:04:22.359Z,60.57
2018-02-02T15:06:50.050Z,60.51
2018-02-02T15:09:17.901Z,60.85
2018-02-02T15:11:45.468Z,60.93
2018-02-02T15:14:13.069Z,60.99
2018-02-02T15:16:40.638Z,61.47
2018-02-02T15:19:08.156Z,61.56
2018-02-02T15:21:35.657Z,61.64
2018-02-02T15:24:03.167Z,61.86
2018-02-02T15:26:31.732Z,62.18
2018-02-02T15:28:59.183Z,62.30
2018-02-02T15:31:26.730Z,61.95
2018-02-02T15:33:54.194Z,61.99
2018-02-02T15:36:21.670Z,61.94
2018-02-02T15:38:49.227Z,62.12
2018-02-02T15:41:16.674Z,62.14
2018-02-02T15:43:44.168Z,62.11
2018-02-02T15:46:11.692Z,62.16
2018-02-02T15:48:39.235Z,62.68
2018-02-02T15:51:06.703Z,62.27
2018-02-02T15:53:34.213Z,62.58
2018-02-02T15:56:01.714Z,62.19
2018-02-02T15:58:29.514Z,62.45
2018-02-02T16:00:57.018Z,62.93
2018-02-02T16:03:24.484Z,63.06
2018-02-02T16:05:51.938Z,62.42
2018-02-02T16:08:19.459Z,62.75
2018-02-02T16:10:46.916Z,62.54
2018-02-02T16:13:14.379Z,62.59
2018-02-02T16:15:41.873Z,62.50
2018-02-02T16:18:09.331Z,62.83
2018-02-02T16:20:36.808Z,62.51
2018-02-02T16:23:04.276Z,62.75
2018-02-02T16:25:31.726Z,62.67
2018-02-02T16:27:59.199Z,62.99
2018-02-02T16:30:27.615Z,62.94
2018-02-02T16:32:55.119Z,62.51
2018-02-02T16:35:22.635Z,62.86
2018-02-02T16:37:50.148Z,62.74
2018-02-02T16:40:17.817Z,63.07
2018-02-02T16:42:45.322Z,62.99
2018-02-02T16:45:12.966Z,63.08
2018-02-02T16:47:40.432Z,63.53
2018-02-02T16:50:08.071Z,63.28
2018-02-02T16:52:35.882Z,63.32
2018-02-02T16:55:03.634Z,63.42
2018-02-02T16:57:31.985Z,63.32
2018-02-02T16:59:59.484Z,63.10
2018-02-02T17:02:26.967Z,63.40
2018-02-02T17:04:54.502Z,63.59
2018-02-02T17:07:21.983Z,63.50
2018-02-02T17:09:49.580Z,63.11
2018-02-02T17:12:17.096Z,62.72
2018-02-02T17:14:44.564Z,63.32
2018-02-02T17:17:12.068Z,62.89
2018-02-02T17:19:39.532Z,62.62
2018-02-02T17:22:06.983Z,62.66
2018-02-02T17:24:34.473Z,63.01
2018-02-02T17:27:01.928Z,62.62
2018-02-02T17:29:29.402Z,62.47
2018-02-02T17:31:56.887Z,62.66
2018-02-02T17:34:24.873Z,62.61
2018-02-02T17:36:52.331Z,62.58
2018-02-02T17:39:19.877Z,62.43
2018-02-02T17:41:47.349Z,61.79
2018-02-02T17:44:15.911Z,61.44
2018-02-02T17:46:43.384Z,61.60
2018-02-02T17:49:10.854Z,61.78
2018-02-02T17:51:38.356Z,61.89
2018-02-02T17:54:05.854Z,61.47
2018-02-02T17:56:33.344Z,61.82
2018-02-02T17:59:00.805Z,61.49
2018-02-02T18:01:30.792Z,61.67
2018-02-02T18:03:58.276Z,61.33
2018-02-02T18:06:26.251Z,61.49
2018-02-02T18:08:53.734Z,61.57
2018-02-02T18:11:21.208Z,61.87
2018-02-02T18:13:48.664Z,61.58
2018-02-02T18:16:16.250Z,60.69
2018-02-02T18:18:44.069Z,60.80
2018-02-02T18:21:11.569Z,61.18
2018-02-02T18:23:39.041Z,61.14
2018-02-02T18:26:06.494Z,61.22
2018-02-02T18:28:33.938Z,61.51
2018-02-02T18:31:01.408Z,61.48
2018-02-02T18:33:28.864Z,61.26
2018-02-02T18:35:56.319Z,61.84
2018-02-02T18:38:23.777Z,62.28
2018-02-02T18:40:51.252Z,62.79
2018-02-02T18:43:18.711Z,62.78
2018-02-02T18:45:46.235Z,63.11
2018-02-02T18:48:13.716Z,62.30
2018-02-02T18:50:41.183Z,62.15
2018-02-02T18:53:08.645Z,61.79
2018-02-02T18:55:36.153Z,61.76
2018-02-02T18:58:03.710Z,61.88
2018-02-02T19:00:31.189Z,61.96
2018-02-02T19:02:58.690Z,61.82
2018-02-02T19:05:26.216Z,61.51
2018-02-02T19:07:53.763Z,61.36
2018-02-02T19:10:21.224Z,60.97
2018-02-02T19:12:48.925Z,60.66
2018-02-02T19:15:17.308Z,60.49
2018-02-02T19:17:44.766Z,60.52
2018-02-02T19:20:12.237Z,60.76
2018-02-02T19:22:39.698Z,60.97
2018-02-02T19:25:07.203Z,60.36
2018-02-02T19:27:34.692Z,60.70
2018-02-02T19:30:02.186Z,60.68
2018-02-02T19:32:30.229Z,60.68
2018-02-02T19:34:57.779Z,61.14
2018-02-02T19:37:25.357Z,61.43
2018-02-02T19:39:52.850Z,61.34
2018-02-02T19:42:20.331Z,61.12
2018-02-02T19:44:47.853Z,60.40
2018-02-02T19:47:15.415Z,60.78
2018-02-02T19:49:43.052Z,61.07
2018-02-02T19:52:10.607Z,59.92
2018-02-02T19:54:38.115Z,60.17
2018-02-02T19:57:22.366Z,59.53
2018-02-02T19:59:49.862Z,59.68
2018-02-02T20:02:17.388Z,59.14
2018-02-02T20:04:44.863Z,59.38
2018-02-02T20:07:12.342Z,58.75
2018-02-02T20:09:39.899Z,58.62
2018-02-02T20:12:07.398Z,59.20
2018-02-02T20:14:34.983Z,59.19
2018-02-02T20:17:02.549Z,58.67
2018-02-02T20:19:30.088Z,58.97
2018-02-02T20:21:57.575Z,58.92
2018-02-02T20:24:25.158Z,58.97
2018-02-02T20:26:52.719Z,58.47
2018-02-02T20:29:20.235Z,57.80
2018-02-02T20:31:47.808Z,58.01
2018-02-02T20:34:15.546Z,58.12
2018-02-02T20:36:43.136Z,58.30
2018-02-02T20:39:10.681Z,58.74
2018-02-02T20:41:38.267Z,58.73
2018-02-02T20:44:05.770Z,59.20
2018-02-02T20:46:33.279Z,59.39
2018-02-02T20:49:00.853Z,59.52
2018-02-02T20:51:28.355Z,59.48
2018-02-02T20:53:55.904Z,59.00
2018-02-02T20:56:23.404Z,59.13
2018-02-02T20:58:50.956Z,59.10
2018-02-02T21:01:18.526Z,59.37
2018-02-02T21:03:45.986Z,59.91
2018-02-02T21:06:13.480Z,59.42
2018-02-02T21:08:41.010Z,59.77
2018-02-02T21:11:08.462Z,59.70
2018-02-02T21:13:35.948Z,60.21
2018-02-02T21:16:03.491Z,60.26
2018-02-02T21:18:31.060Z,60.05
2018-02-02T21:20:58.531Z,59.99
2018-02-02T21:23:26.009Z,60.10
2018-02-02T21:25:53.481Z,60.47
2018-02-02T21:28:20.972Z,60.76
2018-02-02T21:30:48.457Z,60.61
2018-02-02T21:33:16.006Z,60.53
2018-02-02T21:35:43.494Z,60.27
2018-02-02T21:38:10.997Z,60.07
2018-02-02T21:40:38.528Z,60.70
2018-02-02T21:43:06.097Z,59.83
2018-02-02T21:45:33.569Z,60.42
2018-02-02T21:48:01.035Z,60.86
2018-02-02T21:50:28.482Z,60.71
2018-02-02T21:52:55.964Z,60.59
2018-02-02T21:55:23.435Z,60.49
2018-02-02T21:57:50.905Z,60.72
2018-02-02T22:00:18.375Z,60.42
2018-02-02T22:02:45.843Z,60.61
2018-02-02T22:05:13.349Z,61.28
2018-02-02T22:07:40.823Z,61.63
2018-02-02T22:10:08.322Z,61.66
2018-02-02T22:12:35.819Z,61.52
2018-02-02T22:15:03.307Z,61.64
2018-02-02T22:17:30.754Z,62.27
2018-02-02T22:19:58.220Z,62.70
2018-02-02T22:22:25.759Z,62.93
2018-02-02T22:24:53.226Z,63.13
2018-02-02T22:27:20.700Z,63.08
2018-02-02T22:29:48.152Z,63.90
2018-02-02T22:32:15.602Z,63.94
2018-02-02T22:34:43.080Z,64.61
2018-02-02T22:37:10.560Z,64.95
2018-02-02T22:39:38.016Z,64.87
2018-02-02T22:42:05.505Z,65.56
2018-02-02T22:44:32.964Z,65.81
2018-02-02T22:47:00.403Z,65.98
2018-02-02T22:49:27.906Z,66.20
2018-02-02T22:51:55.371Z,66.32
2018-02-02T22:54:22.868Z,66.48
2018-02-02T22:56:50.388Z,66.89
2018-02-02T22:59:17.844Z,66.66
2018-02-02T23:01:51.560Z,66.74
2018-02-02T23:04:19.049Z,66.77
2018-02-02T23:06:46.795Z,66.56
2018-02-02T23:09:14.355Z,66.50
2018-02-02T23:11:41.801Z,66.43
2018-02-02T23:14:10.080Z,66.05
2018-02-02T23:16:37.632Z,66.37
2018-02-02T23:19:05.153Z,65.88
2018-02-02T23:21:32.681Z,66.14
2018-02-02T23:24:00.152Z,66.29
2018-02-02T23:26:27.687Z,66.04
2018-02-02T23:28:55.137Z,65.92
2018-02-02T23:31:22.698Z,65.67
2018-02-02T23:33:50.155Z,65.55
2018-02-02T23:36:23.484Z,65.56
2018-02-02T23:38:50.971Z,65.69
2018-02-02T23:41:18.454Z,65.42
2018-02-02T23:43:46.031Z,65.07
2018-02-02T23:46:13.507Z,65.28
2018-02-02T23:48:41.091Z,64.90
2018-02-02T23:51:08.585Z,64.40
2018-02-02T23:53:36.063Z,64.56
2018-02-02T23:56:03.596Z,64.36
2018-02-02T23:58:31.078Z,63.92
